Cheramie Botruc No 39 — WDB9134 — position and weather

sailwx.info

Track history (hours):
 
Tides and Currents Weather Stations Pressure Air Temp Water Temp Dewpoint Dewpoint Depression Visibility Wind Speed Wind Dir Waves Ship Positions

Cheramie Botruc No 39

Owner: L & M BOTRUC, GALLIANO, LA. More information available from US FCC via Universal Licensing System and Coast Guard Vessel Documentation Center.

Last reported at 2018-May-18 06:54 UTC. Time now 2018-May-24 21:28 UTC.
Position N 28°17' W 092°15'.

Length 58 m; draft 3.6 m.

Type: Ship (hazmat cat C). MMSI: 366970330.

Date/timePositionNaut miles runAvg speedWind from/ knotsBaromVisibWave heightAir tempDewpointWater temp
2018-May-18 06:54N 28°17' W 092°15'0 0.7
2018-May-18 06:24N 28°17' W 092°15'0 0.6
2018-May-18 06:00N 28°17' W 092°15'1 0.4
2018-May-18 04:39N 28°17' W 092°16'0 0.5
2018-May-18 04:30N 28°17' W 092°16'0 0.3
2018-May-18 03:31N 28°16' W 092°16'0 2.8
2018-May-18 03:30N 28°16' W 092°16'0 0.1
2018-May-18 02:11N 28°16' W 092°16'0 0.0
2018-May-18 01:56N 28°16' W 092°16'  
2018-May-15 15:19N 28°18' W 092°14'2 0.7
2018-May-15 11:50N 28°16' W 092°16'1 3.5
2018-May-15 11:29N 28°16' W 092°15'2 0.2
2018-May-15 00:26N 28°16' W 092°13'4 2.0
2018-May-14 22:24N 28°16' W 092°17'0 0.1
2018-May-14 22:00N 28°16' W 092°17'2 3.0
2018-May-14 21:28N 28°15' W 092°15'1 0.4
2018-May-14 18:20N 28°16' W 092°17'1 2.9
2018-May-14 17:59N 28°16' W 092°16'2 2.8
2018-May-14 17:26N 28°15' W 092°14'0 1.1
2018-May-14 17:01N 28°15' W 092°15'2 3.2
2018-May-14 16:30N 28°16' W 092°16'1 0.2
2018-May-14 12:29N 28°16' W 092°16'  
2018-May-08 10:38N 29°07' W 090°12'0 0.0
2018-May-08 10:26N 29°07' W 090°12'0 0.0
2018-May-08 09:59N 29°07' W 090°12'0 0.0
2018-May-08 09:26N 29°07' W 090°12'0 0.0
2018-May-08 08:56N 29°07' W 090°12'0 0.0
2018-May-08 08:20N 29°07' W 090°12'0 0.0
2018-May-08 07:56N 29°07' W 090°12'  
Track history (hours):
 
Tides and Currents Weather Stations Pressure Air Temp Water Temp Dewpoint Dewpoint Depression Visibility Wind Speed Wind Dir Waves Ship Positions

Cheramie Botruc No 39

Owner: L & M BOTRUC, GALLIANO, LA. More information available from US FCC via Universal Licensing System and Coast Guard Vessel Documentation Center.

Last reported at 2018-May-18 06:54 UTC. Time now 2018-May-24 21:28 UTC.
Position N 28°17' W 092°15'.

Length 58 m; draft 3.6 m.

Type: Ship (hazmat cat C). MMSI: 366970330.

Date/timePositionNaut miles runAvg speedWind from/ knotsBaromVisibWave heightAir tempDewpointWater temp
2018-May-18 06:54N 28°17' W 092°15'0 0.7
2018-May-18 06:24N 28°17' W 092°15'0 0.6
2018-May-18 06:00N 28°17' W 092°15'1 0.4
2018-May-18 04:39N 28°17' W 092°16'0 0.5
2018-May-18 04:30N 28°17' W 092°16'0 0.3
2018-May-18 03:31N 28°16' W 092°16'0 2.8
2018-May-18 03:30N 28°16' W 092°16'0 0.1
2018-May-18 02:11N 28°16' W 092°16'0 0.0
2018-May-18 01:56N 28°16' W 092°16'  
2018-May-15 15:19N 28°18' W 092°14'2 0.7
2018-May-15 11:50N 28°16' W 092°16'1 3.5
2018-May-15 11:29N 28°16' W 092°15'2 0.2
2018-May-15 00:26N 28°16' W 092°13'4 2.0
2018-May-14 22:24N 28°16' W 092°17'0 0.1
2018-May-14 22:00N 28°16' W 092°17'2 3.0
2018-May-14 21:28N 28°15' W 092°15'1 0.4
2018-May-14 18:20N 28°16' W 092°17'1 2.9
2018-May-14 17:59N 28°16' W 092°16'2 2.8
2018-May-14 17:26N 28°15' W 092°14'0 1.1
2018-May-14 17:01N 28°15' W 092°15'2 3.2
2018-May-14 16:30N 28°16' W 092°16'1 0.2
2018-May-14 12:29N 28°16' W 092°16'  
2018-May-08 10:38N 29°07' W 090°12'0 0.0
2018-May-08 10:26N 29°07' W 090°12'0 0.0
2018-May-08 09:59N 29°07' W 090°12'0 0.0
2018-May-08 09:26N 29°07' W 090°12'0 0.0
2018-May-08 08:56N 29°07' W 090°12'0 0.0
2018-May-08 08:20N 29°07' W 090°12'0 0.0
2018-May-08 07:56N 29°07' W 090°12'  

Dump ship's entire track history